Time;durP1;ratioP1;P1;durP2;ratioP2;P2;SDS_P1;SDS_P2;PMS_P1;PMS_P2;Temp;Humidity;BMP_temperature;BMP_pressure;BME280_temperature;BME280_humidity;BME280_pressure;Samples;Min_cycle;Max_cycle;Signal;HPM_P1;HPM_P2
2022/07/13 00:02:06;;;;;;;;;;;18.70;98.60;;;;;;5104451;28;20358;-58
2022/07/13 00:04:34;;;;;;;;;;;18.70;98.60;;;;;;5096439;28;19920;-59
2022/07/13 00:07:01;;;;;;;;;;;18.70;98.60;;;;;;5085837;28;19935;-60
2022/07/13 00:09:29;;;;;;;;;;;18.60;98.70;;;;;;5092589;28;19924;-59
2022/07/13 00:11:56;;;;;;;;;;;18.70;98.80;;;;;;5104201;28;20446;-58
2022/07/13 00:14:24;;;;;;;;;;;18.60;99.00;;;;;;5092637;28;19924;-60
2022/07/13 00:16:52;;;;;;;;;;;18.60;99.00;;;;;;5084706;28;19919;-59
2022/07/13 00:19:20;;;;;;;;;;;18.60;99.10;;;;;;5093736;28;19923;-59
2022/07/13 00:21:47;;;;;;;;;;;18.60;99.20;;;;;;5090198;28;19924;-59
2022/07/13 00:24:14;;;;;;;;;;;18.60;99.20;;;;;;5084760;28;19927;-60
2022/07/13 00:26:42;;;;;;;;;;;18.60;99.30;;;;;;5083293;28;19927;-60
2022/07/13 00:29:10;;;;;;;;;;;18.60;99.30;;;;;;5091094;28;19924;-58
2022/07/13 00:31:37;;;;;;;;;;;18.60;99.50;;;;;;5096271;28;19924;-62
2022/07/13 00:34:05;;;;;;;;;;;18.60;99.50;;;;;;5114743;28;19920;-59
2022/07/13 00:36:33;;;;;;;;;;;18.70;99.50;;;;;;5099558;28;19930;-59
2022/07/13 00:39:00;;;;;;;;;;;18.70;99.60;;;;;;5091747;28;19920;-55
2022/07/13 00:41:28;;;;;;;;;;;18.70;99.50;;;;;;5085427;28;20477;-55
2022/07/13 00:44:06;;;;;;;;;;;18.70;99.40;;;;;;5084884;28;19920;-55
2022/07/13 00:46:34;;;;;;;;;;;18.70;99.40;;;;;;5098706;28;19928;-55
2022/07/13 00:49:01;;;;;;;;;;;18.70;99.40;;;;;;5085255;28;19920;-57
2022/07/13 00:51:30;;;;;;;;;;;18.70;99.30;;;;;;5085597;28;19947;-57
2022/07/13 00:53:59;;;;;;;;;;;18.70;99.40;;;;;;5083576;28;19920;-55
2022/07/13 00:56:27;;;;;;;;;;;18.70;99.40;;;;;;5096074;28;19931;-55
2022/07/13 00:58:55;;;;;;;;;;;18.70;99.40;;;;;;5089789;28;19920;-56
2022/07/13 01:01:22;;;;;;;;;;;18.70;99.20;;;;;;5083900;28;19924;-55
2022/07/13 01:03:50;;;;;;;;;;;18.60;99.30;;;;;;5083594;28;19931;-55
2022/07/13 01:06:18;;;;;;;;;;;18.60;99.30;;;;;;5093772;28;19923;-55
2022/07/13 01:08:46;;;;;;;;;;;18.60;99.30;;;;;;5089424;28;20307;-56
2022/07/13 01:11:13;;;;;;;;;;;18.60;99.40;;;;;;5087695;28;19920;-55
2022/07/13 01:13:40;;;;;;;;;;;18.50;99.40;;;;;;5099333;28;19957;-55
2022/07/13 01:16:09;;;;;;;;;;;18.50;99.30;;;;;;5088058;28;19920;-54
2022/07/13 01:18:37;;;;;;;;;;;18.50;99.40;;;;;;5088309;28;20390;-54
2022/07/13 01:21:05;;;;;;;;;;;18.50;99.40;;;;;;5090406;28;19927;-54
2022/07/13 01:23:33;;;;;;;;;;;18.30;99.30;;;;;;5103963;28;19920;-54
2022/07/13 01:26:02;;;;;;;;;;;18.30;99.30;;;;;;5091729;28;19924;-59
2022/07/13 01:28:29;;;;;;;;;;;18.20;99.30;;;;;;5091512;28;20355;-58
2022/07/13 01:30:57;;;;;;;;;;;18.20;99.40;;;;;;5094146;28;19920;-60
2022/07/13 01:33:24;;;;;;;;;;;18.10;99.50;;;;;;5110333;28;19943;-58
2022/07/13 01:35:52;;;;;;;;;;;18.00;99.50;;;;;;5115008;28;19927;-58
2022/07/13 01:38:20;;;;;;;;;;;17.90;99.60;;;;;;5113896;28;20289;-59
2022/07/13 01:40:47;;;;;;;;;;;17.90;99.70;;;;;;5112908;28;20461;-61
2022/07/13 01:43:15;;;;;;;;;;;17.90;99.80;;;;;;5128947;27;19923;-60
2022/07/13 01:45:44;;;;;;;;;;;17.80;99.90;;;;;;5126581;27;19924;-60
2022/07/13 01:48:11;;;;;;;;;;;17.80;99.90;;;;;;5107985;28;19920;-60
2022/07/13 01:50:39;;;;;;;;;;;17.70;99.90;;;;;;5094384;28;19920;-60
2022/07/13 01:53:06;;;;;;;;;;;17.70;99.90;;;;;;5093129;28;19920;-59
2022/07/13 01:55:34;;;;;;;;;;;17.70;99.90;;;;;;5093041;28;19939;-60
2022/07/13 01:58:02;;;;;;;;;;;17.80;99.90;;;;;;5092625;28;19927;-61
2022/07/13 02:00:29;;;;;;;;;;;17.80;99.90;;;;;;5093346;28;20402;-59
2022/07/13 02:02:57;;;;;;;;;;;17.80;99.90;;;;;;5094348;28;19934;-60
2022/07/13 02:05:27;;;;;;;;;;;17.90;99.90;;;;;;5092312;28;20291;-60
2022/07/13 02:07:55;;;;;;;;;;;18.00;99.90;;;;;;5092128;28;19926;-57
2022/07/13 02:10:34;;;;;;;;;;;18.00;99.90;;;;;;5092953;28;19927;-60
2022/07/13 02:13:04;;;;;;;;;;;18.10;99.90;;;;;;5092659;28;19920;-60
2022/07/13 02:15:32;;;;;;;;;;;18.10;99.90;;;;;;5092550;28;19927;-62
2022/07/13 02:17:59;;;;;;;;;;;18.10;99.90;;;;;;5092634;28;20268;-61
2022/07/13 02:20:27;;;;;;;;;;;18.10;99.90;;;;;;5093838;28;19920;-62
2022/07/13 02:22:54;;;;;;;;;;;18.10;99.90;;;;;;5092715;28;19920;-62
2022/07/13 02:25:22;;;;;;;;;;;18.10;99.90;;;;;;5092394;28;20404;-59
2022/07/13 02:27:49;;;;;;;;;;;18.10;99.90;;;;;;5093539;28;19920;-59
2022/07/13 02:30:17;;;;;;;;;;;18.10;99.90;;;;;;5093493;28;19920;-58
2022/07/13 02:32:45;;;;;;;;;;;18.10;99.90;;;;;;5092384;28;19920;-59
2022/07/13 02:35:13;;;;;;;;;;;18.10;99.90;;;;;;5092462;28;20355;-62
2022/07/13 02:37:41;;;;;;;;;;;18.10;99.90;;;;;;5093540;28;19920;-55
2022/07/13 02:40:11;;;;;;;;;;;18.10;99.90;;;;;;5092415;28;19920;-57
2022/07/13 02:42:45;;;;;;;;;;;18.10;99.90;;;;;;5108908;28;19932;-58
2022/07/13 02:45:13;;;;;;;;;;;18.10;99.90;;;;;;5092124;28;19920;-60
2022/07/13 02:47:41;;;;;;;;;;;18.10;99.90;;;;;;5093010;28;20363;-58
2022/07/13 02:50:10;;;;;;;;;;;18.10;99.90;;;;;;5091577;28;19920;-58
2022/07/13 02:52:38;;;;;;;;;;;18.10;99.90;;;;;;5091740;28;20287;-59
2022/07/13 02:55:07;;;;;;;;;;;18.10;99.90;;;;;;5092064;28;19920;-58
2022/07/13 02:57:36;;;;;;;;;;;18.10;99.90;;;;;;5092180;28;20296;-56
2022/07/13 03:00:06;;;;;;;;;;;18.10;99.90;;;;;;5091746;28;19920;-58
2022/07/13 03:02:33;;;;;;;;;;;18.10;99.90;;;;;;5091915;28;19927;-55
2022/07/13 03:05:02;;;;;;;;;;;18.10;99.90;;;;;;5091774;28;19920;-56
2022/07/13 03:07:30;;;;;;;;;;;18.10;99.90;;;;;;5091802;28;19920;-55
2022/07/13 03:09:57;;;;;;;;;;;18.00;99.90;;;;;;5091830;28;19927;-56
2022/07/13 03:12:27;;;;;;;;;;;18.00;99.90;;;;;;5074487;28;19927;-54
2022/07/13 03:14:54;;;;;;;;;;;17.90;99.90;;;;;;5092771;28;19920;-54
2022/07/13 03:17:23;;;;;;;;;;;17.90;99.90;;;;;;5091631;28;19927;-55
2022/07/13 03:19:51;;;;;;;;;;;17.90;99.90;;;;;;5091786;28;19919;-55
2022/07/13 03:22:19;;;;;;;;;;;17.90;99.90;;;;;;5091495;28;20404;-55
2022/07/13 03:24:47;;;;;;;;;;;17.90;99.90;;;;;;5108315;28;19920;-54
2022/07/13 03:27:15;;;;;;;;;;;17.80;99.90;;;;;;5091374;28;19927;-54
2022/07/13 03:29:43;;;;;;;;;;;17.80;99.90;;;;;;5091445;28;19920;-54
2022/07/13 03:32:10;;;;;;;;;;;17.80;99.90;;;;;;5091267;28;20290;-54
2022/07/13 03:34:38;;;;;;;;;;;17.70;99.90;;;;;;5091400;28;19920;-54
2022/07/13 03:37:08;;;;;;;;;;;17.70;99.90;;;;;;5091331;28;19919;-54
2022/07/13 03:39:38;;;;;;;;;;;17.70;99.90;;;;;;5092552;28;19920;-54
2022/07/13 03:42:07;;;;;;;;;;;17.60;99.90;;;;;;5107600;28;20375;-54
2022/07/13 03:44:35;;;;;;;;;;;17.60;99.90;;;;;;5090795;28;19919;-54
2022/07/13 03:47:02;;;;;;;;;;;17.60;99.90;;;;;;5091266;28;20379;-54
2022/07/13 03:49:31;;;;;;;;;;;17.60;99.90;;;;;;5090489;28;19927;-54
2022/07/13 03:51:59;;;;;;;;;;;17.60;99.90;;;;;;5091500;28;20081;-60
2022/07/13 03:54:26;;;;;;;;;;;17.60;99.90;;;;;;5092317;28;19927;-58
2022/07/13 03:56:55;;;;;;;;;;;17.50;99.90;;;;;;5107735;28;19920;-59
2022/07/13 03:59:23;;;;;;;;;;;17.60;99.90;;;;;;5090957;28;19924;-61
2022/07/13 04:01:50;;;;;;;;;;;17.50;99.90;;;;;;5090942;28;19927;-59
2022/07/13 04:04:18;;;;;;;;;;;17.50;99.90;;;;;;5092351;28;19927;-59
2022/07/13 04:06:47;;;;;;;;;;;17.50;99.90;;;;;;5090861;28;19927;-60
2022/07/13 04:09:15;;;;;;;;;;;17.50;99.90;;;;;;5090900;28;19920;-59
2022/07/13 04:11:42;;;;;;;;;;;17.50;99.90;;;;;;5092071;28;20480;-59
2022/07/13 04:14:11;;;;;;;;;;;17.50;99.90;;;;;;5090509;28;19920;-59
2022/07/13 04:16:38;;;;;;;;;;;17.50;99.90;;;;;;5107723;28;20613;-58
2022/07/13 04:19:07;;;;;;;;;;;17.40;99.90;;;;;;5090748;28;19920;-60
2022/07/13 04:21:35;;;;;;;;;;;17.40;99.90;;;;;;5090634;28;20412;-59
2022/07/13 04:24:03;;;;;;;;;;;17.30;99.90;;;;;;5074013;28;19920;-59
2022/07/13 04:26:31;;;;;;;;;;;17.30;99.90;;;;;;5090246;28;19920;-59
2022/07/13 04:28:58;;;;;;;;;;;17.20;99.90;;;;;;5090659;28;19924;-58
2022/07/13 04:31:27;;;;;;;;;;;17.20;99.90;;;;;;5090385;28;20387;-58
2022/07/13 04:33:55;;;;;;;;;;;17.10;99.90;;;;;;5091969;28;19920;-59
2022/07/13 04:36:24;;;;;;;;;;;17.00;99.90;;;;;;5090710;28;20291;-60
2022/07/13 04:38:52;;;;;;;;;;;17.00;99.90;;;;;;5090545;28;19931;-59
2022/07/13 04:41:19;;;;;;;;;;;16.90;99.90;;;;;;5090679;28;19920;-60
2022/07/13 04:43:48;;;;;;;;;;;16.90;99.90;;;;;;5090636;28;20319;-56
2022/07/13 04:46:17;;;;;;;;;;;16.80;99.90;;;;;;5091586;28;19920;-54
2022/07/13 04:48:48;;;;;;;;;;;16.80;99.90;;;;;;5091112;28;19927;-55
2022/07/13 04:51:15;;;;;;;;;;;16.70;99.90;;;;;;5069617;28;19927;-55
2022/07/13 04:53:46;;;;;;;;;;;16.70;99.90;;;;;;5088206;28;20283;-56
2022/07/13 04:56:14;;;;;;;;;;;16.60;99.90;;;;;;5089650;28;19927;-55
2022/07/13 04:58:42;;;;;;;;;;;16.60;99.90;;;;;;5090610;28;19924;-54
2022/07/13 05:01:10;;;;;;;;;;;16.50;99.90;;;;;;5091593;28;19924;-55
2022/07/13 05:03:58;;;;;;;;;;;16.40;99.90;;;;;;5100397;28;19935;-56
2022/07/13 05:06:26;;;;;;;;;;;16.30;99.90;;;;;;5087650;28;19927;-60
2022/07/13 05:08:54;;;;;;;;;;;16.20;99.90;;;;;;5087626;28;19920;-60
2022/07/13 05:11:22;;;;;;;;;;;16.10;99.90;;;;;;5071709;28;20395;-57
2022/07/13 05:13:49;;;;;;;;;;;16.10;99.90;;;;;;5090489;28;19927;-58
2022/07/13 05:16:17;;;;;;;;;;;16.10;99.90;;;;;;5088882;28;20387;-59
2022/07/13 05:18:45;;;;;;;;;;;16.10;99.90;;;;;;5103885;28;19923;-60
2022/07/13 05:21:18;;;;;;;;;;;16.00;99.90;;;;;;5105540;28;19927;-55
2022/07/13 05:23:45;;;;;;;;;;;16.00;99.90;;;;;;5091395;28;20299;-55
2022/07/13 05:26:13;;;;;;;;;;;16.10;99.90;;;;;;5105785;28;19920;-59
2022/07/13 05:28:42;;;;;;;;;;;16.10;99.90;;;;;;5118803;27;19927;-57
2022/07/13 05:31:12;;;;;;;;;;;16.20;99.90;;;;;;5123937;27;19920;-57
2022/07/13 05:33:40;;;;;;;;;;;16.20;99.90;;;;;;5124075;27;20724;-56
2022/07/13 05:36:13;;;;;;;;;;;16.20;99.90;;;;;;5107269;28;19924;-55
2022/07/13 05:38:41;;;;;;;;;;;16.30;99.90;;;;;;5108056;28;19920;-57
2022/07/13 05:41:09;;;;;;;;;;;16.30;99.90;;;;;;5124914;27;20438;-57
2022/07/13 05:43:38;;;;;;;;;;;16.30;99.90;;;;;;5125053;27;20299;-55
2022/07/13 05:46:06;;;;;;;;;;;16.40;99.90;;;;;;5110500;28;19931;-54
2022/07/13 05:48:34;;;;;;;;;;;16.50;99.90;;;;;;5095050;28;19924;-55
2022/07/13 05:51:02;;;;;;;;;;;16.50;99.90;;;;;;5091200;28;20378;-55
2022/07/13 05:53:50;;;;;;;;;;;16.60;99.90;;;;;;5090070;28;19924;-55
2022/07/13 05:56:18;;;;;;;;;;;16.60;99.90;;;;;;5090185;28;19923;-55
2022/07/13 05:58:45;;;;;;;;;;;16.70;99.90;;;;;;5090489;28;19920;-55
2022/07/13 06:01:13;;;;;;;;;;;16.70;99.90;;;;;;5091084;28;19920;-54
2022/07/13 06:03:40;;;;;;;;;;;16.80;99.90;;;;;;5089473;28;19927;-55
2022/07/13 06:06:08;;;;;;;;;;;16.70;99.90;;;;;;5087591;28;19923;-55
2022/07/13 06:08:36;;;;;;;;;;;16.70;99.90;;;;;;5087886;28;20364;-56
2022/07/13 06:11:04;;;;;;;;;;;16.70;99.90;;;;;;5090328;28;19920;-56
2022/07/13 06:13:31;;;;;;;;;;;16.70;99.90;;;;;;5090523;28;19920;-56
2022/07/13 06:15:59;;;;;;;;;;;16.80;99.90;;;;;;5090810;28;19928;-58
2022/07/13 06:18:27;;;;;;;;;;;16.80;99.90;;;;;;5090569;28;19920;-57
2022/07/13 06:20:55;;;;;;;;;;;16.80;99.90;;;;;;5090537;28;19924;-58
2022/07/13 06:23:23;;;;;;;;;;;16.80;99.90;;;;;;5090659;28;20368;-58
2022/07/13 06:25:50;;;;;;;;;;;16.80;99.90;;;;;;5090634;28;19935;-57
2022/07/13 06:28:18;;;;;;;;;;;16.80;99.90;;;;;;5090474;28;19927;-54
2022/07/13 06:30:45;;;;;;;;;;;16.80;99.90;;;;;;5090320;28;19920;-55
2022/07/13 06:33:13;;;;;;;;;;;16.70;99.90;;;;;;5090541;28;20291;-60
2022/07/13 06:35:40;;;;;;;;;;;16.70;99.90;;;;;;5102957;28;19926;-56
2022/07/13 06:38:08;;;;;;;;;;;16.60;99.90;;;;;;5109375;28;19930;-55
2022/07/13 06:40:35;;;;;;;;;;;16.60;99.90;;;;;;5110796;28;19920;-58
2022/07/13 06:43:03;;;;;;;;;;;16.60;99.90;;;;;;5110634;28;20417;-58
2022/07/13 06:45:31;;;;;;;;;;;16.60;99.90;;;;;;5110467;28;19928;-58
2022/07/13 06:47:58;;;;;;;;;;;16.60;99.90;;;;;;5093592;28;20219;-60
2022/07/13 06:50:26;;;;;;;;;;;16.70;99.90;;;;;;5090583;28;19924;-56
2022/07/13 06:52:53;;;;;;;;;;;16.80;99.90;;;;;;5091333;28;20359;-59
2022/07/13 06:55:21;;;;;;;;;;;17.00;99.90;;;;;;5108865;28;19930;-56
2022/07/13 06:57:49;;;;;;;;;;;17.10;99.90;;;;;;5102775;28;19928;-57
2022/07/13 07:00:16;;;;;;;;;;;17.20;99.90;;;;;;5091336;28;19920;-59
2022/07/13 07:02:44;;;;;;;;;;;17.30;99.80;;;;;;5094178;28;19930;-55
2022/07/13 07:05:11;;;;;;;;;;;17.40;99.20;;;;;;5103284;28;19930;-60
2022/07/13 07:07:40;;;;;;;;;;;17.40;99.10;;;;;;5100787;28;20402;-57
2022/07/13 07:10:08;;;;;;;;;;;17.50;98.90;;;;;;5122199;27;19919;-57
2022/07/13 07:12:36;;;;;;;;;;;17.50;98.70;;;;;;5097096;28;19924;-56
2022/07/13 07:15:03;;;;;;;;;;;17.50;98.90;;;;;;5089647;28;19928;-57
2022/07/13 07:17:31;;;;;;;;;;;17.50;99.00;;;;;;5089381;28;21185;-56
2022/07/13 07:19:59;;;;;;;;;;;17.60;98.60;;;;;;5097170;28;20375;-56
2022/07/13 07:22:27;;;;;;;;;;;17.70;98.70;;;;;;5098342;28;20274;-60
2022/07/13 07:24:56;;;;;;;;;;;17.70;98.10;;;;;;5084852;28;19920;-57
2022/07/13 07:27:26;;;;;;;;;;;17.80;98.20;;;;;;5093687;28;19927;-57
2022/07/13 07:29:53;;;;;;;;;;;17.90;98.10;;;;;;5108708;28;19924;-57
2022/07/13 07:32:21;;;;;;;;;;;18.00;97.90;;;;;;5101726;28;19931;-57
2022/07/13 07:34:49;;;;;;;;;;;18.00;97.50;;;;;;5068561;28;19936;-57
2022/07/13 07:37:19;;;;;;;;;;;18.00;97.10;;;;;;5103417;28;19927;-56
2022/07/13 07:39:47;;;;;;;;;;;18.00;97.20;;;;;;5104538;28;19920;-56
2022/07/13 07:42:14;;;;;;;;;;;18.10;97.30;;;;;;5106000;28;20401;-56
2022/07/13 07:44:42;;;;;;;;;;;18.10;97.50;;;;;;5108512;28;19919;-57
2022/07/13 07:47:09;;;;;;;;;;;18.10;97.40;;;;;;5105235;28;19924;-55
2022/07/13 07:49:37;;;;;;;;;;;18.10;96.90;;;;;;5089888;28;19920;-57
2022/07/13 07:52:08;;;;;;;;;;;18.60;96.60;;;;;;5103269;28;19924;-57
2022/07/13 07:54:55;;;;;;;;;;;17.90;96.20;;;;;;5107970;28;19920;-58
2022/07/13 07:57:28;;;;;;;;;;;17.70;96.20;;;;;;5098984;28;19924;-57
2022/07/13 07:59:55;;;;;;;;;;;17.70;96.60;;;;;;5089945;28;19920;-56
2022/07/13 08:02:22;;;;;;;;;;;17.60;96.80;;;;;;5088635;28;19929;-59
2022/07/13 08:04:50;;;;;;;;;;;17.70;96.90;;;;;;5102536;28;19920;-57
2022/07/13 08:07:18;;;;;;;;;;;17.70;96.50;;;;;;5095413;28;19920;-57
2022/07/13 08:09:45;;;;;;;;;;;17.70;96.50;;;;;;5095617;28;19920;-55
2022/07/13 08:12:13;;;;;;;;;;;17.80;96.80;;;;;;5104125;28;19920;-56
2022/07/13 08:14:40;;;;;;;;;;;17.90;96.60;;;;;;5099296;28;19923;-56
2022/07/13 08:17:08;;;;;;;;;;;18.00;96.30;;;;;;5107545;28;19931;-56
2022/07/13 08:19:36;;;;;;;;;;;18.20;96.20;;;;;;5087607;28;19927;-55
2022/07/13 08:22:07;;;;;;;;;;;18.30;95.90;;;;;;5087388;28;19920;-55
2022/07/13 08:24:35;;;;;;;;;;;18.30;95.60;;;;;;5097657;28;19927;-55
2022/07/13 08:27:03;;;;;;;;;;;18.40;95.40;;;;;;5108211;28;20391;-55
2022/07/13 08:29:30;;;;;;;;;;;18.40;95.10;;;;;;5097845;28;20507;-55
2022/07/13 08:31:58;;;;;;;;;;;18.40;95.10;;;;;;5110552;28;19923;-55
2022/07/13 08:40:06;;;;;;;;;;;18.60;95.30;;;;;;5092549;28;20283;-55
2022/07/13 08:42:34;;;;;;;;;;;18.70;95.30;;;;;;5101876;28;19927;-56
2022/07/13 08:45:02;;;;;;;;;;;18.80;95.00;;;;;;5104960;28;19920;-57
2022/07/13 08:47:30;;;;;;;;;;;18.80;94.30;;;;;;5108051;28;19920;-57
2022/07/13 08:50:01;;;;;;;;;;;18.80;94.40;;;;;;5092430;28;19920;-56
2022/07/13 08:52:29;;;;;;;;;;;18.80;94.20;;;;;;5092299;28;19920;-56
2022/07/13 08:54:58;;;;;;;;;;;18.80;94.20;;;;;;5110561;27;20397;-57
2022/07/13 08:57:26;;;;;;;;;;;18.80;94.20;;;;;;5110573;28;19927;-56
2022/07/13 08:59:53;;;;;;;;;;;18.70;94.00;;;;;;5110304;28;19920;-57
2022/07/13 09:02:20;;;;;;;;;;;18.70;94.40;;;;;;5109488;28;19920;-56
2022/07/13 09:04:48;;;;;;;;;;;18.70;94.00;;;;;;5109984;28;19927;-56
2022/07/13 09:07:16;;;;;;;;;;;18.60;93.40;;;;;;5102177;28;19920;-56
2022/07/13 09:09:43;;;;;;;;;;;18.60;93.40;;;;;;5109571;28;19927;-57
2022/07/13 09:12:31;;;;;;;;;;;18.60;93.10;;;;;;5100702;28;20394;-57
2022/07/13 09:14:58;;;;;;;;;;;18.50;92.70;;;;;;5091960;28;19943;-57
2022/07/13 09:17:27;;;;;;;;;;;18.50;92.80;;;;;;5101178;28;20745;-56
2022/07/13 09:19:55;;;;;;;;;;;18.60;93.00;;;;;;5110789;28;19943;-57
2022/07/13 09:22:23;;;;;;;;;;;18.60;93.40;;;;;;5104857;28;19942;-56
2022/07/13 09:24:56;;;;;;;;;;;18.80;92.40;;;;;;5107590;28;20378;-56
2022/07/13 09:27:23;;;;;;;;;;;18.80;92.30;;;;;;5104830;28;19924;-57
2022/07/13 09:29:51;;;;;;;;;;;18.80;92.00;;;;;;5093110;28;19920;-56
2022/07/13 09:32:19;;;;;;;;;;;18.80;92.10;;;;;;5101503;28;19931;-57
2022/07/13 09:34:51;;;;;;;;;;;18.90;92.20;;;;;;5111013;28;19939;-57
2022/07/13 09:37:23;;;;;;;;;;;18.90;91.90;;;;;;5108864;28;19920;-58
2022/07/13 09:40:06;;;;;;;;;;;18.90;91.80;;;;;;5090225;28;19920;-58
2022/07/13 09:42:34;;;;;;;;;;;19.00;92.20;;;;;;5098140;28;20685;-58
2022/07/13 09:47:53;;;;;;;;;;;19.30;92.30;;;;;;5106865;28;20318;-58
2022/07/13 09:50:22;;;;;;;;;;;19.40;91.80;;;;;;5110834;28;20001;-58
2022/07/13 09:52:51;;;;;;;;;;;19.50;91.90;;;;;;5108192;28;19920;-58
2022/07/13 09:55:20;;;;;;;;;;;19.60;91.10;;;;;;5108499;28;19972;-58
2022/07/13 09:57:49;;;;;;;;;;;19.70;91.00;;;;;;5111442;28;19924;-58
2022/07/13 10:00:28;;;;;;;;;;;19.80;90.70;;;;;;5094531;28;19931;-58
2022/07/13 10:02:55;;;;;;;;;;;19.90;90.50;;;;;;5098158;28;19994;-58
2022/07/13 10:05:24;;;;;;;;;;;19.90;90.70;;;;;;5091037;28;19927;-59
2022/07/13 10:07:52;;;;;;;;;;;20.00;90.60;;;;;;5090479;28;19923;-58
2022/07/13 10:10:19;;;;;;;;;;;20.20;90.50;;;;;;5090852;28;20272;-58
2022/07/13 10:12:46;;;;;;;;;;;20.30;89.60;;;;;;5096102;28;19924;-58
2022/07/13 10:15:14;;;;;;;;;;;20.30;89.70;;;;;;5091418;28;19931;-59
2022/07/13 10:17:46;;;;;;;;;;;20.40;89.60;;;;;;5090625;28;19926;-62
2022/07/13 10:20:16;;;;;;;;;;;20.50;89.70;;;;;;5090910;28;19924;-60
2022/07/13 10:22:45;;;;;;;;;;;20.50;88.10;;;;;;5097339;28;20527;-60
2022/07/13 10:25:13;;;;;;;;;;;20.50;88.40;;;;;;5094881;28;19924;-59
2022/07/13 10:27:41;;;;;;;;;;;20.60;88.40;;;;;;5107215;28;19919;-57
2022/07/13 10:30:10;;;;;;;;;;;20.80;88.20;;;;;;5110883;28;19920;-57
2022/07/13 10:32:39;;;;;;;;;;;20.90;87.70;;;;;;5101947;28;19927;-57
2022/07/13 10:35:09;;;;;;;;;;;21.00;86.50;;;;;;5091451;28;19920;-56
2022/07/13 10:38:02;;;;;;;;;;;20.90;85.50;;;;;;5090040;28;19920;-56
2022/07/13 10:40:30;;;;;;;;;;;20.90;85.30;;;;;;5087637;28;19920;-55
2022/07/13 10:43:03;;;;;;;;;;;20.90;85.70;;;;;;5095732;28;19927;-55
2022/07/13 10:45:48;;;;;;;;;;;21.00;85.60;;;;;;5090220;28;19927;-56
2022/07/13 10:48:17;;;;;;;;;;;21.10;86.20;;;;;;5089821;28;19920;-55
2022/07/13 10:50:44;;;;;;;;;;;21.20;86.20;;;;;;5100458;28;19927;-55
2022/07/13 10:53:12;;;;;;;;;;;21.30;85.70;;;;;;5097864;28;19920;-55
2022/07/13 10:55:46;;;;;;;;;;;21.40;84.90;;;;;;5098620;28;20538;-56
2022/07/13 10:58:31;;;;;;;;;;;21.50;84.20;;;;;;5092165;28;19920;-56
2022/07/13 11:01:00;;;;;;;;;;;21.60;83.70;;;;;;5090261;28;19920;-56
2022/07/13 11:03:43;;;;;;;;;;;21.70;83.20;;;;;;5096796;28;19927;-56
2022/07/13 11:06:12;;;;;;;;;;;21.80;82.90;;;;;;5092494;28;19920;-56
2022/07/13 11:08:40;;;;;;;;;;;21.90;82.20;;;;;;5089527;28;19994;-56
2022/07/13 11:11:11;;;;;;;;;;;21.90;81.80;;;;;;5089993;28;19924;-56
2022/07/13 11:13:46;;;;;;;;;;;22.00;80.80;;;;;;5106987;27;19934;-57
2022/07/13 11:16:13;;;;;;;;;;;22.10;81.80;;;;;;5090903;28;20414;-57
2022/07/13 11:18:41;;;;;;;;;;;22.10;80.50;;;;;;5093945;28;19928;-57
2022/07/13 11:21:12;;;;;;;;;;;22.20;79.40;;;;;;5085943;28;19931;-57
2022/07/13 11:26:35;;;;;;;;;;;22.20;78.70;;;;;;5094981;28;19924;-58
2022/07/13 11:29:11;;;;;;;;;;;22.00;78.30;;;;;;5090561;28;20311;-57
2022/07/13 11:31:39;;;;;;;;;;;22.10;78.90;;;;;;5096466;28;19931;-57
2022/07/13 11:34:07;;;;;;;;;;;22.10;78.70;;;;;;5095044;28;20395;-56
2022/07/13 11:36:34;;;;;;;;;;;22.20;78.70;;;;;;5086301;28;19939;-57
2022/07/13 11:39:02;;;;;;;;;;;22.20;77.70;;;;;;5093541;28;20274;-57
2022/07/13 11:41:29;;;;;;;;;;;22.20;78.40;;;;;;5100678;28;19931;-57
2022/07/13 11:43:57;;;;;;;;;;;22.30;78.60;;;;;;5103226;28;20484;-57
2022/07/13 11:46:28;;;;;;;;;;;22.40;79.30;;;;;;5096133;28;20387;-56
2022/07/13 11:49:03;;;;;;;;;;;22.60;79.50;;;;;;5088418;28;19923;-57
2022/07/13 11:51:31;;;;;;;;;;;22.70;79.00;;;;;;5085533;28;19932;-57
2022/07/13 11:54:10;;;;;;;;;;;22.90;78.40;;;;;;5095829;28;19989;-57
2022/07/13 11:56:48;;;;;;;;;;;23.10;77.80;;;;;;5087205;28;20241;-57
2022/07/13 11:59:36;;;;;;;;;;;23.40;77.60;;;;;;5102240;28;19935;-57
2022/07/13 12:02:04;;;;;;;;;;;23.60;77.20;;;;;;5105277;28;19928;-57
2022/07/13 12:04:31;;;;;;;;;;;24.00;76.20;;;;;;5103894;28;19931;-58
2022/07/13 12:07:15;;;;;;;;;;;24.20;74.30;;;;;;5105678;28;19943;-58
2022/07/13 12:10:01;;;;;;;;;;;24.30;73.70;;;;;;5099628;28;19924;-57
2022/07/13 12:12:33;;;;;;;;;;;24.40;73.20;;;;;;5090496;28;19923;-57
2022/07/13 12:15:01;;;;;;;;;;;24.50;73.80;;;;;;5104731;28;19924;-57
2022/07/13 12:17:31;;;;;;;;;;;24.70;73.10;;;;;;5102076;28;19931;-57
2022/07/13 12:20:12;;;;;;;;;;;24.90;72.10;;;;;;5102471;28;19928;-57
2022/07/13 12:22:39;;;;;;;;;;;25.00;71.00;;;;;;5098186;28;19928;-57
2022/07/13 12:25:07;;;;;;;;;;;25.20;70.70;;;;;;5086374;28;19928;-58
2022/07/13 12:27:35;;;;;;;;;;;25.30;70.00;;;;;;5076859;28;20258;-57
2022/07/13 12:30:07;;;;;;;;;;;25.60;71.00;;;;;;5080941;28;19924;-57
2022/07/13 12:32:53;;;;;;;;;;;25.80;70.40;;;;;;5077168;28;19928;-57
2022/07/13 12:35:21;;;;;;;;;;;26.20;66.60;;;;;;5087234;28;19931;-58
2022/07/13 12:37:52;;;;;;;;;;;26.30;66.30;;;;;;5084610;28;19951;-58
2022/07/13 12:40:39;;;;;;;;;;;26.30;66.80;;;;;;5071665;28;19924;-57
2022/07/13 12:43:17;;;;;;;;;;;26.40;67.00;;;;;;5077596;28;19928;-58
2022/07/13 12:45:49;;;;;;;;;;;26.60;67.70;;;;;;5090107;28;20418;-58
2022/07/13 12:48:17;;;;;;;;;;;26.90;65.90;;;;;;5091121;28;19931;-58
2022/07/13 12:51:00;;;;;;;;;;;27.00;66.00;;;;;;5088947;28;19924;-58
2022/07/13 12:54:03;;;;;;;;;;;27.10;66.20;;;;;;5091154;28;19931;-58
2022/07/13 12:56:44;;;;;;;;;;;27.30;64.80;;;;;;5055953;28;19925;-57
2022/07/13 12:59:15;;;;;;;;;;;27.40;63.70;;;;;;5085103;28;19924;-58
2022/07/13 13:01:44;;;;;;;;;;;27.50;64.00;;;;;;5091338;28;19924;-58
2022/07/13 13:04:12;;;;;;;;;;;27.60;63.20;;;;;;5089286;28;20386;-57
2022/07/13 13:06:40;;;;;;;;;;;27.70;63.80;;;;;;5086507;28;19928;-58
2022/07/13 13:09:17;;;;;;;;;;;28.00;62.50;;;;;;5077414;28;19931;-58
2022/07/13 13:11:46;;;;;;;;;;;28.30;62.90;;;;;;5087093;28;20376;-60
2022/07/13 13:14:14;;;;;;;;;;;28.40;61.40;;;;;;5089494;28;19946;-58
2022/07/13 13:16:42;;;;;;;;;;;28.50;60.80;;;;;;5090706;28;19931;-58
2022/07/13 13:19:10;;;;;;;;;;;28.50;61.80;;;;;;5088660;28;20387;-58
2022/07/13 13:21:38;;;;;;;;;;;28.60;61.50;;;;;;5090465;28;19928;-58
2022/07/13 13:24:07;;;;;;;;;;;28.60;60.70;;;;;;5090567;28;19931;-57
2022/07/13 13:26:36;;;;;;;;;;;28.60;60.00;;;;;;5075572;28;19932;-57
2022/07/13 13:32:10;;;;;;;;;;;28.50;60.00;;;;;;5090322;28;19924;-58
2022/07/13 13:34:37;;;;;;;;;;;28.40;59.70;;;;;;5088899;28;19924;-57
2022/07/13 13:37:05;;;;;;;;;;;28.30;60.70;;;;;;5089893;28;19934;-57
2022/07/13 13:39:32;;;;;;;;;;;28.50;61.00;;;;;;5090301;28;19939;-57
2022/07/13 13:42:00;;;;;;;;;;;28.80;60.20;;;;;;5077992;28;19928;-57
2022/07/13 13:44:27;;;;;;;;;;;29.10;59.00;;;;;;5089212;28;19931;-58
2022/07/13 13:46:55;;;;;;;;;;;29.20;59.90;;;;;;5087348;28;19931;-58
2022/07/13 13:49:22;;;;;;;;;;;29.40;59.30;;;;;;5088643;28;19931;-58
2022/07/13 13:51:50;;;;;;;;;;;29.50;57.40;;;;;;5090185;28;19932;-58
2022/07/13 13:54:28;;;;;;;;;;;29.50;57.80;;;;;;5079364;28;19928;-58
2022/07/13 13:56:55;;;;;;;;;;;29.50;56.90;;;;;;5069934;28;19931;-58
2022/07/13 13:59:23;;;;;;;;;;;29.50;57.90;;;;;;5080391;28;19928;-57
2022/07/13 14:01:50;;;;;;;;;;;29.70;58.10;;;;;;5069880;28;20292;-58
2022/07/13 14:04:19;;;;;;;;;;;30.00;58.30;;;;;;5086659;28;19924;-58
2022/07/13 14:06:47;;;;;;;;;;;30.10;56.10;;;;;;5084997;28;19928;-58
2022/07/13 14:09:14;;;;;;;;;;;30.00;55.60;;;;;;5074002;28;19925;-58
2022/07/13 14:11:42;;;;;;;;;;;30.00;55.80;;;;;;5066449;28;19932;-57
2022/07/13 14:14:09;;;;;;;;;;;30.00;56.30;;;;;;5086684;28;19924;-57
2022/07/13 14:16:37;;;;;;;;;;;30.10;55.40;;;;;;5089541;28;19924;-58
2022/07/13 14:19:05;;;;;;;;;;;30.00;54.70;;;;;;5089499;28;20321;-58
2022/07/13 14:21:32;;;;;;;;;;;29.70;54.40;;;;;;5089722;28;19925;-58
2022/07/13 14:24:00;;;;;;;;;;;29.30;54.90;;;;;;5086723;28;19935;-57
2022/07/13 14:26:46;;;;;;;;;;;28.90;55.30;;;;;;5073514;28;20230;-57
2022/07/13 14:29:25;;;;;;;;;;;28.50;55.70;;;;;;5085394;28;19924;-57
2022/07/13 14:31:57;;;;;;;;;;;28.20;56.00;;;;;;5087259;28;19924;-57
2022/07/13 14:34:45;;;;;;;;;;;27.90;55.90;;;;;;5073137;28;20312;-57
2022/07/13 14:37:23;;;;;;;;;;;27.80;57.10;;;;;;5067055;28;19924;-57
2022/07/13 14:39:51;;;;;;;;;;;27.80;56.20;;;;;;5077328;28;19924;-58
2022/07/13 14:42:19;;;;;;;;;;;27.80;55.80;;;;;;5081298;28;19931;-57
2022/07/13 14:44:46;;;;;;;;;;;27.80;55.60;;;;;;5085903;28;19931;-57